Time;durP1;ratioP1;P1;durP2;ratioP2;P2;SDS_P1;SDS_P2;PMS_P1;PMS_P2;Temp;Humidity;BMP_temperature;BMP_pressure;BME280_temperature;BME280_humidity;BME280_pressure;Samples;Min_cycle;Max_cycle;Signal;HPM_P1;HPM_P2
2024/02/25 00:01:16;;;;;;;5.30;2.63;;;;;;;5.54;100.00;97828.31;5019798;28;20029;-66
2024/02/25 00:03:41;;;;;;;4.93;2.50;;;;;;;5.45;100.00;97834.25;4989975;28;20042;-65
2024/02/25 00:06:07;;;;;;;4.95;2.42;;;;;;;5.51;100.00;97837.13;5006173;28;20047;-64
2024/02/25 00:08:34;;;;;;;5.82;2.92;;;;;;;5.49;100.00;97833.84;5010045;28;20040;-64
2024/02/25 00:11:05;;;;;;;5.85;2.58;;;;;;;5.51;100.00;97842.31;5005351;28;20026;-65
2024/02/25 00:13:31;;;;;;;5.30;2.55;;;;;;;5.51;100.00;97841.47;5005309;28;20105;-69
2024/02/25 00:15:56;;;;;;;4.88;2.60;;;;;;;5.42;100.00;97829.34;5006646;28;20018;-68
2024/02/25 00:18:21;;;;;;;5.82;2.85;;;;;;;5.34;100.00;97807.63;5007309;28;20131;-65
2024/02/25 00:20:47;;;;;;;5.55;3.05;;;;;;;5.35;100.00;97842.78;5000365;28;20037;-67
2024/02/25 00:23:12;;;;;;;5.78;2.65;;;;;;;5.50;100.00;97843.22;5005587;28;20104;-66
2024/02/25 00:25:43;;;;;;;5.18;2.67;;;;;;;5.53;100.00;97824.94;4992879;28;20108;-65
2024/02/25 00:28:09;;;;;;;5.60;2.95;;;;;;;5.43;100.00;97831.00;5005996;28;20566;-68
2024/02/25 00:30:35;;;;;;;5.25;2.67;;;;;;;5.49;100.00;97849.31;5009453;28;20035;-64
2024/02/25 00:33:05;;;;;;;5.38;3.10;;;;;;;5.45;100.00;97845.38;5003855;28;20033;-65
2024/02/25 00:35:31;;;;;;;5.40;3.00;;;;;;;5.46;100.00;97836.72;5003260;28;20040;-67
2024/02/25 00:37:58;;;;;;;6.95;3.15;;;;;;;5.15;100.00;97790.34;4988760;28;20029;-64
2024/02/25 00:40:24;;;;;;;5.30;2.70;;;;;;;5.48;100.00;97839.97;5006706;28;20096;-66
2024/02/25 00:42:49;;;;;;;5.38;3.05;;;;;;;5.51;100.00;97837.13;5009402;28;20447;-63
2024/02/25 00:45:15;;;;;;;5.80;3.30;;;;;;;5.39;100.00;97841.56;5006091;28;20144;-64
2024/02/25 00:47:40;;;;;;;5.90;3.30;;;;;;;5.36;100.00;97841.00;5004178;28;20034;-66
2024/02/25 00:50:06;;;;;;;6.28;3.60;;;;;;;5.39;100.00;97839.00;4986531;28;20037;-64
2024/02/25 00:52:33;;;;;;;5.78;3.40;;;;;;;5.46;100.00;97844.44;5001349;28;20859;-67
2024/02/25 00:54:59;;;;;;;6.13;3.15;;;;;;;5.47;100.00;97843.50;5005346;28;20029;-64
2024/02/25 00:57:27;;;;;;;6.93;3.55;;;;;;;5.54;100.00;97847.16;5016679;28;20060;-64
2024/02/25 00:59:52;;;;;;;5.25;3.00;;;;;;;5.45;100.00;97847.97;4988105;28;20054;-64
2024/02/25 01:02:18;;;;;;;5.35;2.85;;;;;;;5.42;100.00;97830.19;5010639;28;20032;-66
2024/02/25 01:04:43;;;;;;;5.55;3.05;;;;;;;5.44;100.00;97840.34;4995041;28;20038;-66
2024/02/25 01:07:09;;;;;;;5.70;3.00;;;;;;;5.44;100.00;97840.34;5007270;28;20022;-67
2024/02/25 01:09:34;;;;;;;5.85;3.20;;;;;;;5.50;100.00;97834.69;4985627;28;20045;-64
2024/02/25 01:11:59;;;;;;;5.70;3.10;;;;;;;5.52;100.00;97838.75;5006980;28;20029;-64
2024/02/25 01:14:30;;;;;;;8.07;3.30;;;;;;;5.56;100.00;97829.00;5013214;28;20029;-64
2024/02/25 01:16:55;;;;;;;5.70;3.20;;;;;;;5.65;100.00;97822.22;4988932;28;20025;-65
2024/02/25 01:19:21;;;;;;;5.45;2.97;;;;;;;5.46;100.00;97822.97;4987870;28;20488;-63
2024/02/25 01:21:51;;;;;;;5.55;3.10;;;;;;;5.42;100.00;97816.47;5007648;28;20113;-66
2024/02/25 01:24:17;;;;;;;5.43;2.80;;;;;;;5.46;100.00;97813.50;4992450;28;20102;-66
2024/02/25 01:26:45;;;;;;;5.82;3.20;;;;;;;5.44;100.00;97827.47;4994314;28;20036;-66
2024/02/25 01:29:13;;;;;;;5.45;3.00;;;;;;;5.23;100.00;97781.16;5001087;28;20305;-66
2024/02/25 01:31:46;;;;;;;5.88;2.97;;;;;;;5.45;100.00;97827.34;5003497;28;20037;-65
2024/02/25 01:34:14;;;;;;;6.20;3.22;;;;;;;5.47;100.00;97825.44;4992981;28;20530;-66
2024/02/25 01:36:41;;;;;;;6.00;3.08;;;;;;;5.15;100.00;97780.03;5023857;28;20033;-66
2024/02/25 01:39:07;;;;;;;6.18;3.00;;;;;;;5.24;100.00;97777.59;4988696;28;20041;-64
2024/02/25 01:41:32;;;;;;;5.13;2.95;;;;;;;5.63;100.00;97824.13;5003704;28;20030;-64
2024/02/25 01:43:58;;;;;;;6.00;3.30;;;;;;;5.43;100.00;97795.72;4989591;28;20045;-64
2024/02/25 01:46:23;;;;;;;6.30;3.20;;;;;;;5.62;100.00;97815.56;5012966;28;20041;-66
2024/02/25 01:48:52;;;;;;;5.20;2.90;;;;;;;5.51;100.00;97816.50;4991939;28;20561;-69
2024/02/25 01:51:21;;;;;;;5.63;2.80;;;;;;;5.52;100.00;97805.22;5021728;28;20036;-67
2024/02/25 01:53:50;;;;;;;5.82;2.90;;;;;;;5.58;100.00;97811.63;5004263;28;20084;-66
2024/02/25 01:56:18;;;;;;;5.82;2.67;;;;;;;5.54;100.00;97807.69;5007774;28;20064;-67
2024/02/25 01:58:46;;;;;;;5.45;2.95;;;;;;;5.47;100.00;97806.59;4991004;28;20033;-64
2024/02/25 02:01:16;;;;;;;5.00;2.80;;;;;;;5.49;100.00;97799.53;5004380;28;20033;-66
2024/02/25 02:03:42;;;;;;;6.40;3.13;;;;;;;5.40;100.00;97803.69;5015659;28;20625;-64
2024/02/25 02:06:10;;;;;;;5.50;3.00;;;;;;;5.42;100.00;97799.25;4992437;28;20033;-67
2024/02/25 02:08:39;;;;;;;6.38;3.08;;;;;;;5.44;100.00;97793.94;5014117;28;20098;-68
2024/02/25 02:11:21;;;;;;;5.20;2.90;;;;;;;5.51;100.00;97802.78;5012788;28;20056;-68
2024/02/25 02:13:47;;;;;;;4.90;2.53;;;;;;;5.39;100.00;97784.84;5025968;28;20055;-67
2024/02/25 02:16:14;;;;;;;6.25;2.80;;;;;;;5.56;100.00;97793.69;5010038;28;20154;-67
2024/02/25 02:18:43;;;;;;;4.75;2.58;;;;;;;5.56;100.00;97792.88;5009403;28;20029;-64
2024/02/25 02:21:15;;;;;;;5.10;2.97;;;;;;;5.52;100.00;97782.03;5013826;28;20026;-64
2024/02/25 02:23:41;;;;;;;5.28;2.88;;;;;;;5.53;100.00;97783.66;5012412;28;20048;-64
2024/02/25 02:26:06;;;;;;;5.60;2.83;;;;;;;5.54;100.00;97785.28;4994741;28;20670;-66
2024/02/25 02:28:34;;;;;;;5.47;2.78;;;;;;;5.50;100.00;97790.84;5004020;28;20029;-63
2024/02/25 02:30:59;;;;;;;5.38;2.80;;;;;;;5.46;100.00;97792.88;5005333;28;20033;-65
2024/02/25 02:33:27;;;;;;;4.97;2.70;;;;;;;5.39;100.00;97790.00;5025668;28;20464;-67
2024/02/25 02:35:52;;;;;;;5.97;2.65;;;;;;;5.45;100.00;97778.34;5004541;28;20109;-65
2024/02/25 02:38:18;;;;;;;5.20;3.00;;;;;;;5.48;100.00;97780.66;5002949;28;20022;-66
2024/02/25 02:40:45;;;;;;;5.28;2.80;;;;;;;5.46;100.00;97782.56;5006963;28;20041;-68
2024/02/25 02:43:11;;;;;;;5.28;2.97;;;;;;;5.24;100.00;97744.09;5005641;28;20029;-63
2024/02/25 02:45:37;;;;;;;5.63;3.03;;;;;;;5.48;100.00;97780.66;5010221;28;20084;-62
2024/02/25 02:48:03;;;;;;;4.90;2.78;;;;;;;5.44;100.00;97781.06;5010900;28;20570;-66
2024/02/25 02:50:32;;;;;;;5.40;2.90;;;;;;;5.51;100.00;97780.41;5007822;28;20642;-66
2024/02/25 02:52:57;;;;;;;5.10;2.70;;;;;;;5.47;100.00;97766.13;5007404;28;20128;-65
2024/02/25 02:55:23;;;;;;;5.13;2.80;;;;;;;5.28;100.00;97735.19;5004282;28;20663;-65
2024/02/25 02:57:48;;;;;;;5.57;2.22;;;;;;;5.56;100.00;97770.50;5012292;28;20034;-63
2024/02/25 03:00:17;;;;;;;4.90;2.65;;;;;;;5.58;100.00;97786.66;5011320;28;20083;-67
2024/02/25 03:02:44;;;;;;;5.03;2.70;;;;;;;5.56;100.00;97782.56;5013147;28;20030;-67
2024/02/25 03:05:10;;;;;;;6.35;2.92;;;;;;;5.50;100.00;97788.28;5000465;28;20282;-66
2024/02/25 03:07:35;;;;;;;5.55;2.60;;;;;;;5.49;100.00;97784.06;4993675;28;20018;-62
2024/02/25 03:10:01;;;;;;;5.95;2.90;;;;;;;5.52;100.00;97782.03;5005441;28;20056;-63
2024/02/25 03:12:28;;;;;;;5.43;2.55;;;;;;;5.68;100.00;97798.75;5010007;28;20029;-65
2024/02/25 03:14:54;;;;;;;5.43;2.83;;;;;;;5.70;100.00;97809.75;5005266;28;20053;-71
2024/02/25 03:17:20;;;;;;;5.15;2.67;;;;;;;5.78;100.00;97802.16;4991305;28;20026;-64
2024/02/25 03:19:46;;;;;;;4.97;2.95;;;;;;;5.81;100.00;97806.25;4997101;28;21577;-65
2024/02/25 03:22:11;;;;;;;5.53;2.80;;;;;;;5.87;100.00;97814.25;5004913;28;20025;-63
2024/02/25 03:24:42;;;;;;;5.55;2.75;;;;;;;5.93;100.00;97807.72;5007519;28;20041;-66
2024/02/25 03:27:09;;;;;;;5.10;2.75;;;;;;;5.96;100.00;97812.66;5011127;28;20540;-64
2024/02/25 03:29:35;;;;;;;6.45;2.80;;;;;;;5.84;100.00;97778.41;5004614;28;20029;-65
2024/02/25 03:32:00;;;;;;;5.85;2.85;;;;;;;5.77;100.00;97767.00;5008415;28;20038;-64
2024/02/25 03:34:28;;;;;;;6.97;3.90;;;;;;;5.85;100.00;97792.94;5008970;28;20033;-65
2024/02/25 03:36:53;;;;;;;7.78;4.57;;;;;;;5.90;100.00;97816.56;5010553;28;20137;-67
2024/02/25 03:39:21;;;;;;;6.93;4.50;;;;;;;5.76;100.00;97780.84;5029333;28;20021;-63
2024/02/25 03:41:49;;;;;;;6.55;4.20;;;;;;;6.06;100.00;97803.16;4995247;28;20742;-63
2024/02/25 03:44:17;;;;;;;6.90;4.50;;;;;;;6.09;100.00;97805.47;5013804;28;20033;-66
2024/02/25 03:46:45;;;;;;;6.60;4.00;;;;;;;5.89;100.00;97759.94;5008265;28;20038;-66
2024/02/25 03:49:10;;;;;;;7.60;4.22;;;;;;;6.14;100.00;97805.88;5013479;28;20026;-65
2024/02/25 03:51:44;;;;;;;6.68;3.95;;;;;;;6.15;100.00;97798.94;4993943;28;20044;-61
2024/02/25 03:54:11;;;;;;;6.05;3.97;;;;;;;6.04;100.00;97794.75;5010841;28;20033;-65
2024/02/25 03:56:38;;;;;;;6.20;3.72;;;;;;;5.95;100.00;97792.91;5011382;28;20099;-64
2024/02/25 03:59:06;;;;;;;6.20;4.13;;;;;;;6.00;100.00;97792.56;4992825;28;20755;-62
2024/02/25 04:01:34;;;;;;;6.57;4.05;;;;;;;6.08;100.00;97788.34;5010606;28;20048;-66
2024/02/25 04:03:59;;;;;;;7.13;4.05;;;;;;;6.06;100.00;97773.94;4997811;28;20385;-64
2024/02/25 04:06:27;;;;;;;5.65;3.60;;;;;;;6.10;100.00;97785.66;5013222;28;20030;-63
2024/02/25 04:08:55;;;;;;;5.93;3.30;;;;;;;6.08;100.00;97772.06;5009594;28;20044;-71
2024/02/25 04:11:20;;;;;;;6.75;3.63;;;;;;;6.15;100.00;97775.69;5010639;28;20029;-61
2024/02/25 04:13:48;;;;;;;8.63;3.60;;;;;;;6.20;100.00;97781.28;5013744;28;20466;-65
2024/02/25 04:16:16;;;;;;;5.22;3.15;;;;;;;6.19;100.00;97782.25;4986021;28;20028;-68
2024/02/25 04:18:41;;;;;;;6.18;3.42;;;;;;;6.12;100.00;97778.56;5001183;28;20029;-64
2024/02/25 04:21:07;;;;;;;5.22;3.22;;;;;;;6.20;100.00;97789.00;5004264;28;20789;-63
2024/02/25 04:23:34;;;;;;;5.30;3.03;;;;;;;6.13;100.00;97791.34;5005161;28;20034;-64
2024/02/25 04:26:00;;;;;;;6.70;3.65;;;;;;;6.02;100.00;97788.88;5011401;28;20535;-66
2024/02/25 04:28:28;;;;;;;6.53;3.47;;;;;;;5.85;100.00;97745.69;5007862;28;20023;-65
2024/02/25 04:30:55;;;;;;;6.07;3.45;;;;;;;6.08;100.00;97796.09;5012278;28;20069;-63
2024/02/25 04:33:26;;;;;;;6.72;3.63;;;;;;;6.16;100.00;97792.84;5006234;28;20038;-65
2024/02/25 04:35:55;;;;;;;6.68;3.78;;;;;;;6.20;100.00;97796.75;4995989;28;20545;-63
2024/02/25 04:38:21;;;;;;;5.57;3.30;;;;;;;6.15;100.00;97801.50;5007688;28;20029;-67
2024/02/25 04:40:52;;;;;;;6.32;3.60;;;;;;;6.05;100.00;97790.41;5004623;28;20034;-66
2024/02/25 04:43:17;;;;;;;5.28;3.20;;;;;;;6.01;100.00;97800.19;5012271;28;20100;-66
2024/02/25 04:45:45;;;;;;;5.50;3.13;;;;;;;6.01;100.00;97801.94;5005408;28;20135;-65
2024/02/25 04:48:10;;;;;;;5.45;3.05;;;;;;;5.93;100.00;97805.16;4993660;28;20029;-65
2024/02/25 04:50:38;;;;;;;6.00;3.25;;;;;;;6.03;100.00;97808.59;5020693;28;20037;-68
2024/02/25 04:53:10;;;;;;;5.72;3.00;;;;;;;5.98;100.00;97808.19;4993108;28;20104;-62
2024/02/25 04:55:35;;;;;;;5.95;3.05;;;;;;;6.04;100.00;97814.56;5022448;28;20039;-63
2024/02/25 04:58:01;;;;;;;6.45;3.42;;;;;;;5.97;100.00;97814.31;5004706;28;20022;-63
2024/02/25 05:00:26;;;;;;;5.30;2.97;;;;;;;5.95;100.00;97810.97;5004620;28;20121;-63
2024/02/25 05:02:51;;;;;;;5.10;2.78;;;;;;;6.02;100.00;97821.63;4996812;28;20103;-66
2024/02/25 05:05:17;;;;;;;5.65;3.03;;;;;;;6.03;100.00;97815.53;5010056;28;20040;-63
2024/02/25 05:07:44;;;;;;;5.55;3.05;;;;;;;5.86;100.00;97775.69;5010520;28;20030;-67
2024/02/25 05:10:12;;;;;;;5.07;2.70;;;;;;;6.11;100.00;97823.41;4994907;28;20025;-65
2024/02/25 05:12:37;;;;;;;5.68;2.92;;;;;;;6.05;100.00;97829.91;5010185;28;20038;-65
2024/02/25 05:15:06;;;;;;;6.13;2.72;;;;;;;5.99;100.00;97817.56;4993912;28;20037;-63
2024/02/25 05:17:31;;;;;;;5.15;2.40;;;;;;;5.83;100.00;97827.56;4995171;28;20041;-66
2024/02/25 05:19:56;;;;;;;5.15;2.75;;;;;;;5.69;100.00;97829.56;4993295;28;20025;-63
2024/02/25 05:22:22;;;;;;;5.22;2.50;;;;;;;5.63;100.00;97819.78;5008706;28;20566;-65
2024/02/25 05:24:47;;;;;;;4.93;2.47;;;;;;;5.50;100.00;97804.56;5008902;28;20029;-65
2024/02/25 05:27:15;;;;;;;5.55;3.03;;;;;;;5.67;100.00;97822.91;5010641;28;20018;-68
2024/02/25 05:29:40;;;;;;;5.30;2.83;;;;;;;5.52;100.00;97817.31;5013490;28;20046;-66
2024/02/25 05:32:06;;;;;;;4.93;2.80;;;;;;;5.44;100.00;97823.16;5007968;28;20035;-68
2024/02/25 05:34:31;;;;;;;6.25;2.80;;;;;;;5.40;100.00;97783.06;5015305;28;20610;-66
2024/02/25 05:36:57;;;;;;;6.03;2.95;;;;;;;5.58;100.00;97811.63;5010675;28;20591;-64
2024/02/25 05:39:22;;;;;;;5.78;2.85;;;;;;;5.48;100.00;97819.34;5014573;28;20436;-64
2024/02/25 05:41:50;;;;;;;6.38;3.10;;;;;;;5.34;100.00;97771.53;5007671;28;20113;-67
2024/02/25 05:44:16;;;;;;;5.10;2.90;;;;;;;5.57;100.00;97815.97;4998532;28;20175;-64
2024/02/25 05:46:43;;;;;;;5.38;3.10;;;;;;;5.69;100.00;97815.84;5009029;28;21437;-61
2024/02/25 05:49:09;;;;;;;5.57;2.58;;;;;;;5.61;100.00;97813.94;4996842;28;20037;-64
2024/02/25 05:51:34;;;;;;;4.97;2.80;;;;;;;5.61;100.00;97802.81;5000410;28;20487;-65
2024/02/25 05:53:59;;;;;;;5.38;2.90;;;;;;;5.61;100.00;97813.13;5010772;28;20025;-65
2024/02/25 05:56:26;;;;;;;5.70;2.90;;;;;;;5.53;100.00;97809.47;5021669;28;20784;-64
2024/02/25 05:58:53;;;;;;;5.10;3.10;;;;;;;5.51;100.00;97818.25;5003893;28;20038;-66
2024/02/25 06:01:19;;;;;;;5.78;3.13;;;;;;;5.23;100.00;97770.84;5012310;28;20075;-65
2024/02/25 06:03:45;;;;;;;5.88;3.47;;;;;;;5.36;100.00;97777.38;5010553;28;20812;-67
2024/02/25 06:06:11;;;;;;;5.95;3.33;;;;;;;5.68;100.00;97816.81;5007716;28;20029;-66
2024/02/25 06:08:36;;;;;;;5.60;3.20;;;;;;;5.69;100.00;97829.56;4995751;28;20087;-67
2024/02/25 06:11:04;;;;;;;5.55;2.92;;;;;;;5.68;100.00;97817.63;5010074;28;20034;-64
2024/02/25 06:13:34;;;;;;;6.32;3.25;;;;;;;5.43;100.00;97780.25;5006900;28;20064;-65
2024/02/25 06:15:59;;;;;;;5.55;3.25;;;;;;;5.58;100.00;97804.72;5012621;28;20053;-65
2024/02/25 06:18:25;;;;;;;6.45;3.10;;;;;;;5.84;100.00;97834.34;5005234;28;20532;-66
2024/02/25 06:20:53;;;;;;;5.28;2.90;;;;;;;5.88;100.00;97839.13;5015135;28;20026;-62
2024/02/25 06:23:20;;;;;;;6.13;3.33;;;;;;;5.91;100.00;97836.28;5011664;28;20034;-62
2024/02/25 06:25:46;;;;;;;7.10;3.05;;;;;;;5.93;100.00;97831.78;5001185;28;20049;-63
2024/02/25 06:28:11;;;;;;;6.18;3.17;;;;;;;5.80;100.00;97823.47;5025726;28;20877;-62
2024/02/25 06:30:37;;;;;;;6.55;3.10;;;;;;;5.99;100.00;97833.03;5003688;28;20033;-65
2024/02/25 06:33:02;;;;;;;5.25;2.88;;;;;;;6.03;100.00;97836.97;5012876;28;20048;-65
2024/02/25 06:35:28;;;;;;;7.05;2.90;;;;;;;6.02;100.00;97834.53;5014662;28;20025;-66
2024/02/25 06:37:58;;;;;;;6.47;3.25;;;;;;;5.77;100.00;97819.41;4999903;28;20125;-64
2024/02/25 06:40:23;;;;;;;;;;;;;;;5.93;100.00;97836.94;5008497;28;20017;-66
2024/02/25 06:42:49;;;;;;;5.03;2.85;;;;;;;5.74;100.00;97791.28;5011086;28;20226;-65
2024/02/25 06:45:17;;;;;;;5.25;2.75;;;;;;;5.74;100.00;97793.06;5011062;28;20136;-65
2024/02/25 06:47:48;;;;;;;5.75;2.70;;;;;;;6.01;100.00;97838.88;5011637;28;20104;-68
2024/02/25 06:50:15;;;;;;;5.60;2.95;;;;;;;6.05;100.00;97831.69;4992660;28;20145;-69
2024/02/25 06:52:42;;;;;;;5.90;2.80;;;;;;;6.14;100.00;97836.03;5012274;28;20022;-65
2024/02/25 06:55:08;;;;;;;5.80;3.10;;;;;;;6.18;100.00;97839.16;4997023;28;20083;-66
2024/02/25 06:57:36;;;;;;;6.57;2.80;;;;;;;6.09;100.00;97830.47;5006116;28;20651;-66
2024/02/25 07:00:05;;;;;;;6.00;3.05;;;;;;;6.08;100.00;97846.91;4995766;28;20045;-63
2024/02/25 07:02:31;;;;;;;5.88;3.17;;;;;;;6.15;100.00;97841.06;5000737;28;20033;-64
2024/02/25 07:04:56;;;;;;;6.93;3.40;;;;;;;6.17;100.00;97840.94;5012279;28;20076;-64
2024/02/25 07:07:21;;;;;;;6.35;3.70;;;;;;;6.31;100.00;97847.44;5002837;28;20030;-63
2024/02/25 07:09:47;;;;;;;5.45;3.10;;;;;;;6.37;100.00;97856.41;5003773;28;20821;-66
2024/02/25 07:12:12;;;;;;;5.43;2.95;;;;;;;6.28;100.00;97845.97;5008072;28;20576;-67
2024/02/25 07:14:38;;;;;;;5.03;3.00;;;;;;;6.37;100.00;97859.81;5012210;28;20033;-67
2024/02/25 07:17:03;;;;;;;5.97;3.45;;;;;;;6.36;100.00;97855.59;5013828;28;20025;-63
2024/02/25 07:19:29;;;;;;;5.40;3.10;;;;;;;6.32;100.00;97857.63;5004691;28;20025;-65
2024/02/25 07:21:54;;;;;;;5.53;3.10;;;;;;;6.27;100.00;97859.00;5006726;28;20030;-65
2024/02/25 07:24:20;;;;;;;6.13;3.50;;;;;;;6.31;100.00;97858.56;5003833;28;20031;-67
2024/02/25 07:26:45;;;;;;;6.18;3.70;;;;;;;6.32;100.00;97867.97;5015500;28;20025;-66
2024/02/25 07:29:13;;;;;;;5.43;3.13;;;;;;;6.25;100.00;97850.56;5008712;28;20628;-66
2024/02/25 07:31:40;;;;;;;5.28;2.70;;;;;;;5.87;100.00;97829.72;5005047;28;20122;-66
2024/02/25 07:34:08;;;;;;;5.07;2.75;;;;;;;6.15;100.00;97876.38;5012085;28;20651;-68
2024/02/25 07:36:33;;;;;;;5.30;2.80;;;;;;;6.18;100.00;97863.19;5005371;28;20032;-66
2024/02/25 07:38:59;;;;;;;5.78;2.70;;;;;;;6.15;100.00;97864.31;5010538;28;20030;-65
2024/02/25 07:41:24;;;;;;;5.88;2.42;;;;;;;6.25;100.00;97871.22;4990247;28;20079;-62
2024/02/25 07:43:52;;;;;;;5.10;2.65;;;;;;;6.28;100.00;97870.94;5009588;28;20507;-66
2024/02/25 07:46:18;;;;;;;4.88;2.50;;;;;;;6.33;100.00;97866.19;4991836;28;20105;-63
2024/02/25 07:48:46;;;;;;;7.03;2.78;;;;;;;6.15;100.00;97830.75;5009390;28;20041;-67
2024/02/25 07:51:11;;;;;;;8.00;3.28;;;;;;;6.40;100.00;97861.31;5011620;28;20240;-63
2024/02/25 07:53:38;;;;;;;5.53;3.13;;;;;;;6.43;100.00;97876.53;5008070;28;21524;-68
2024/02/25 07:56:06;;;;;;;6.13;3.42;;;;;;;6.41;100.00;97868.13;5012882;28;20026;-64
2024/02/25 07:58:32;;;;;;;6.35;3.55;;;;;;;6.38;100.00;97861.44;4993173;28;20030;-61
2024/02/25 08:01:00;;;;;;;5.85;3.63;;;;;;;6.48;100.00;97866.59;5007837;28;20125;-65
2024/02/25 08:03:25;;;;;;;5.65;3.17;;;;;;;6.53;100.00;97864.41;4991816;28;20029;-64
2024/02/25 08:05:50;;;;;;;7.13;3.50;;;;;;;6.57;100.00;97867.53;4998264;28;20579;-67
2024/02/25 08:08:16;;;;;;;5.85;3.38;;;;;;;6.56;100.00;97865.94;5004048;28;20017;-66
2024/02/25 08:10:42;;;;;;;6.82;3.50;;;;;;;6.60;100.00;97859.53;5012586;28;20046;-62
2024/02/25 08:13:07;;;;;;;6.63;3.10;;;;;;;6.56;100.00;97868.50;5006649;28;20030;-63
2024/02/25 08:15:33;;;;;;;6.57;3.05;;;;;;;6.39;100.00;97852.75;4996643;28;20045;-67
2024/02/25 08:18:00;;;;;;;5.57;3.08;;;;;;;6.40;100.00;97869.06;4986398;28;20030;-62
2024/02/25 08:20:26;;;;;;;6.60;3.35;;;;;;;6.44;100.00;97867.81;5005515;28;20056;-65
2024/02/25 08:22:51;;;;;;;6.47;3.28;;;;;;;6.29;100.00;97865.66;5022913;28;20024;-63
2024/02/25 08:25:17;;;;;;;5.13;2.58;;;;;;;6.30;100.00;97859.53;5011632;28;20200;-63
2024/02/25 08:27:47;;;;;;;5.78;2.80;;;;;;;6.19;100.00;97853.69;5015821;28;20114;-68
2024/02/25 08:30:12;;;;;;;5.80;3.13;;;;;;;6.18;100.00;97855.47;4990559;28;20468;-65
2024/02/25 08:32:38;;;;;;;5.25;3.05;;;;;;;5.98;100.00;97818.50;4996332;28;20034;-66
2024/02/25 08:35:07;;;;;;;5.63;3.30;;;;;;;6.33;100.00;97863.59;5009315;28;20456;-65
2024/02/25 08:37:33;;;;;;;5.75;2.75;;;;;;;5.97;100.00;97820.28;5006213;28;20045;-67
2024/02/25 08:39:59;;;;;;;6.32;2.55;;;;;;;6.23;100.00;97842.97;5014880;28;20046;-66
2024/02/25 08:42:29;;;;;;;4.88;2.38;;;;;;;6.37;100.00;97859.00;4988385;28;20021;-66
2024/02/25 08:44:54;;;;;;;4.93;2.50;;;;;;;6.45;100.00;97859.94;5010231;28;20842;-66
2024/02/25 08:47:22;;;;;;;4.45;2.20;;;;;;;6.37;100.00;97854.66;4998090;28;20037;-66
2024/02/25 08:49:47;;;;;;;4.70;2.20;;;;;;;6.45;100.00;97856.56;4993532;28;20034;-67
2024/02/25 08:52:20;;;;;;;4.82;2.10;;;;;;;6.37;100.00;97849.50;5007987;28;20509;-66
2024/02/25 08:54:48;;;;;;;4.60;1.98;;;;;;;6.42;100.00;97865.38;4999227;28;20033;-70
2024/02/25 08:57:14;;;;;;;4.30;2.17;;;;;;;6.45;100.00;97859.13;4994996;28;20025;-63
2024/02/25 08:59:39;;;;;;;4.32;2.05;;;;;;;6.26;100.00;97822.06;4998610;28;20054;-66
2024/02/25 09:02:07;;;;;;;5.05;2.20;;;;;;;6.40;100.00;97825.16;4995719;28;20033;-66
2024/02/25 09:04:32;;;;;;;5.38;2.40;;;;;;;6.67;100.00;97866.59;4990587;28;20751;-65
2024/02/25 09:07:01;;;;;;;5.60;2.55;;;;;;;6.49;100.00;97819.16;5010910;28;20118;-67
2024/02/25 09:09:27;;;;;;;5.68;2.38;;;;;;;6.71;100.00;97867.94;4988337;28;20045;-67
2024/02/25 09:11:55;;;;;;;4.50;2.03;;;;;;;6.54;100.00;97830.72;5007130;28;20030;-66
2024/02/25 09:14:27;;;;;;;5.22;2.05;;;;;;;6.60;100.00;97849.19;4983418;28;20033;-66
2024/02/25 09:16:53;;;;;;;6.00;3.00;;;;;;;6.51;100.00;97854.22;4994327;28;20037;-69
2024/02/25 09:19:18;;;;;;;6.60;2.95;;;;;;;6.57;100.00;97855.47;5017054;28;20084;-63
2024/02/25 09:21:47;;;;;;;6.70;2.40;;;;;;;6.46;100.00;97853.00;5003635;28;20030;-69
2024/02/25 09:24:15;;;;;;;5.32;2.63;;;;;;;6.42;100.00;97852.47;5000737;28;20553;-72
2024/02/25 09:26:45;;;;;;;4.88;2.30;;;;;;;6.48;100.00;97843.34;4993534;28;20037;-69
2024/02/25 09:29:10;;;;;;;4.60;2.15;;;;;;;6.50;100.00;97857.78;5006255;28;20387;-67
2024/02/25 09:31:41;;;;;;;6.22;2.20;;;;;;;6.63;100.00;97861.84;5004352;28;20040;-65
2024/02/25 09:34:11;;;;;;;4.53;1.80;;;;;;;6.36;100.00;97834.94;5008819;28;20022;-63
2024/02/25 09:36:37;;;;;;;4.70;1.85;;;;;;;6.64;100.00;97853.13;4987996;28;20076;-70
2024/02/25 09:39:03;;;;;;;4.85;1.80;;;;;;;6.72;100.00;97850.69;4991606;28;20907;-68
2024/02/25 09:41:41;;;;;;;4.70;2.30;;;;;;;6.86;100.00;97852.84;5010276;28;20040;-66
2024/02/25 09:44:39;;;;;;;4.30;1.90;;;;;;;6.73;100.00;97850.53;5006675;28;20124;-70
2024/02/25 09:47:08;;;;;;;4.43;2.10;;;;;;;6.79;100.00;97851.75;4991640;28;20038;-69
2024/02/25 09:49:38;;;;;;;4.60;1.83;;;;;;;6.70;100.00;97852.59;4986429;28;20052;-70
2024/02/25 09:52:07;;;;;;;4.78;1.92;;;;;;;6.72;100.00;97848.91;4988660;28;20687;-69
2024/02/25 09:54:35;;;;;;;;;;;;;;;6.86;100.00;97846.81;5008131;28;20155;-69
2024/02/25 09:57:00;;;;;;;9.98;5.55;;;;;;;6.55;100.00;97810.84;4989644;28;20399;-67
2024/02/25 09:59:26;;;;;;;4.65;2.20;;;;;;;6.81;100.00;97856.75;5006187;28;20056;-67
2024/02/25 10:01:51;;;;;;;4.90;2.15;;;;;;;6.73;100.00;97852.28;4995778;28;20828;-64
2024/02/25 10:04:18;;;;;;;5.28;2.80;;;;;;;6.76;100.00;97846.06;5001486;28;21249;-66
2024/02/25 10:06:44;;;;;;;5.20;2.50;;;;;;;6.82;100.00;97842.91;4992631;28;20960;-66
2024/02/25 10:09:11;;;;;;;4.53;2.08;;;;;;;6.90;100.00;97855.94;4986465;28;20111;-66
2024/02/25 10:11:41;;;;;;;4.95;2.28;;;;;;;6.88;100.00;97856.09;5003690;28;20654;-65
2024/02/25 10:14:09;;;;;;;4.30;1.90;;;;;;;6.84;100.00;97831.47;4990962;28;20144;-66
2024/02/25 10:16:37;;;;;;;4.78;2.10;;;;;;;6.93;100.00;97855.66;5015877;28;20018;-65
2024/02/25 10:19:02;;;;;;;4.28;1.63;;;;;;;6.94;100.00;97857.28;5009391;28;20136;-66
2024/02/25 10:21:27;;;;;;;5.00;2.22;;;;;;;6.87;100.00;97848.47;5005162;28;20801;-64
2024/02/25 10:23:54;;;;;;;4.15;2.00;;;;;;;6.92;100.00;97854.03;5009882;28;20022;-67
2024/02/25 10:26:23;;;;;;;4.20;1.70;;;;;;;6.81;100.00;97860.19;5016279;28;20140;-67
2024/02/25 10:28:51;;;;;;;4.38;1.85;;;;;;;6.82;100.00;97850.66;5026086;28;20048;-67
2024/02/25 10:31:16;;;;;;;4.00;1.70;;;;;;;6.93;100.00;97853.06;5008406;28;20515;-66
2024/02/25 10:33:46;;;;;;;5.18;1.85;;;;;;;6.83;100.00;97849.72;5007810;28;20041;-68
2024/02/25 10:36:16;;;;;;;4.15;1.75;;;;;;;6.87;100.00;97844.09;5011207;28;20147;-65
2024/02/25 10:38:46;;;;;;;4.10;1.73;;;;;;;6.85;100.00;97840.84;4994082;28;20025;-65
2024/02/25 10:41:12;;;;;;;5.43;1.90;;;;;;;6.88;100.00;97838.00;5010932;28;20300;-69
2024/02/25 10:43:38;;;;;;;4.60;1.92;;;;;;;7.03;100.00;97847.88;5012029;28;20026;-65
2024/02/25 10:46:46;;;;;;;5.25;1.90;;;;;;;7.02;100.00;97839.31;4994696;28;21593;-69
2024/02/25 10:49:17;;;;;;;4.38;1.73;;;;;;;6.97;100.00;97833.72;5023698;28;20045;-70
2024/02/25 10:51:43;;;;;;;3.85;1.50;;;;;;;7.09;100.00;97840.38;5009513;28;20053;-70
2024/02/25 10:54:12;;;;;;;4.45;1.70;;;;;;;7.18;100.00;97823.19;4997158;28;20952;-68
2024/02/25 10:56:42;;;;;;;5.10;1.83;;;;;;;7.35;100.00;97824.19;4995244;28;20602;-70
2024/02/25 10:59:11;;;;;;;4.32;1.83;;;;;;;7.38;100.00;97821.34;4993163;28;20060;-70
2024/02/25 11:01:39;;;;;;;4.00;1.80;;;;;;;7.34;100.00;97812.25;4994054;28;20064;-69
2024/02/25 11:04:08;;;;;;;4.32;1.58;;;;;;;7.42;100.00;97811.53;5008547;28;20030;-66
2024/02/25 11:06:36;;;;;;;4.95;2.20;;;;;;;7.47;100.00;97797.19;5011613;28;20052;-65
2024/02/25 11:09:09;;;;;;;4.07;1.70;;;;;;;7.56;100.00;97797.28;5004471;28;20116;-68
2024/02/25 11:11:35;;;;;;;5.65;1.83;;;;;;;7.15;100.00;97763.19;5000633;28;20047;-65
2024/02/25 11:14:00;;;;;;;5.65;2.00;;;;;;;7.31;100.00;97808.16;5010443;28;20033;-68
2024/02/25 11:16:32;;;;;;;3.97;1.77;;;;;;;7.38;100.00;97805.00;4992377;28;20121;-65
2024/02/25 11:19:06;;;;;;;4.20;1.90;;;;;;;7.24;100.00;97808.88;4996476;28;20025;-67
2024/02/25 11:21:33;;;;;;;6.07;2.25;;;;;;;7.29;100.00;97793.75;5020560;28;20021;-68
2024/02/25 11:23:58;;;;;;;4.63;1.90;;;;;;;7.36;100.00;97784.47;4995276;28;20575;-68
2024/02/25 11:26:32;;;;;;;5.90;2.05;;;;;;;7.39;100.00;97785.94;4991523;28;20032;-67
2024/02/25 11:29:12;;;;;;;5.28;2.30;;;;;;;7.69;100.00;97784.81;5007725;28;20107;-67
2024/02/25 11:31:56;;;;;;;4.63;1.90;;;;;;;7.74;100.00;97792.13;5012493;28;20047;-66
2024/02/25 11:34:26;;;;;;;4.25;1.98;;;;;;;7.68;100.00;97750.38;5006860;28;20045;-66